Time;durP1;ratioP1;P1;durP2;ratioP2;P2;SDS_P1;SDS_P2;PMS_P1;PMS_P2;Temp;Humidity;BMP_temperature;BMP_pressure;BME280_temperature;BME280_humidity;BME280_pressure;Samples;Min_cycle;Max_cycle;Signal;HPM_P1;HPM_P2
2021/12/21 00:00:22;;;;;;;;;9.50;9.50;;;;;1.99;85.98;102792.06;5012579;28;12600;-70
2021/12/21 00:02:52;;;;;;;;;12.00;8.50;;;;;2.01;86.29;102784.81;4995076;28;11570;-69
2021/12/21 00:05:21;;;;;;;;;13.50;10.00;;;;;2.01;86.46;102791.00;4993104;28;11514;-70
2021/12/21 00:07:50;;;;;;;;;12.75;12.75;;;;;1.99;86.46;102779.56;5007285;28;12142;-69
2021/12/21 00:10:19;;;;;;;;;11.00;8.00;;;;;2.08;86.56;102792.38;5011508;28;12232;-69
2021/12/21 00:15:55;;;;;;;;;10.75;8.00;;;;;2.02;86.09;102783.88;4999683;28;11464;-69
2021/12/21 00:20:53;;;;;;;;;8.25;4.75;;;;;1.96;85.97;102781.50;5012259;28;11444;-69
2021/12/21 00:25:59;;;;;;;;;8.00;8.00;;;;;1.97;85.95;102777.91;5012173;28;12281;-69
2021/12/21 00:28:29;;;;;;;;;12.75;11.00;;;;;1.94;86.04;102778.06;5005132;28;12084;-69
2021/12/21 00:30:56;;;;;;;;;10.25;8.00;;;;;1.96;85.93;102777.03;5010397;28;11461;-69
2021/12/21 00:33:22;;;;;;;;;9.50;8.75;;;;;1.91;85.83;102771.09;5012034;28;11487;-69
2021/12/21 00:35:49;;;;;;;;;11.75;7.75;;;;;1.94;85.84;102770.06;5011315;28;11463;-69
2021/12/21 00:38:15;;;;;;;;;5.00;4.50;;;;;1.97;85.74;102769.88;4993656;28;11446;-69
2021/12/21 00:40:42;;;;;;;;;12.25;11.00;;;;;1.88;85.47;102763.25;5011748;28;11537;-70
2021/12/21 00:43:08;;;;;;;;;11.00;11.00;;;;;1.78;85.09;102765.59;5011990;28;11582;-69
2021/12/21 00:45:35;;;;;;;;;9.50;8.25;;;;;1.78;85.42;102776.25;5010986;28;11445;-69
2021/12/21 00:48:01;;;;;;;;;12.50;12.00;;;;;1.77;85.71;102769.19;5008275;28;11550;-69
2021/12/21 00:50:29;;;;;;;;;10.00;8.00;;;;;1.81;85.76;102769.88;4997223;28;11586;-69
2021/12/21 00:52:56;;;;;;;;;7.00;7.00;;;;;1.76;85.44;102761.28;5010549;28;11440;-69
2021/12/21 00:55:23;;;;;;;;;9.75;8.50;;;;;1.70;85.47;102761.59;5011482;28;11437;-69
2021/12/21 00:57:50;;;;;;;;;5.50;5.50;;;;;1.68;85.51;102764.34;5011111;28;11418;-68
2021/12/21 01:00:18;;;;;;;;;9.00;7.75;;;;;1.73;85.77;102764.09;5011105;28;12118;-70
2021/12/21 01:02:46;;;;;;;;;9.75;7.50;;;;;1.69;85.48;102767.88;5002840;28;12249;-69
2021/12/21 01:05:33;;;;;;;;;9.75;8.50;;;;;1.66;85.66;102770.72;4993823;28;14006;-71
2021/12/21 01:08:02;;;;;;;;;11.25;8.50;;;;;1.66;85.66;102771.59;5008598;28;11458;-69
2021/12/21 01:10:51;;;;;;;;;9.00;8.50;;;;;1.64;85.61;102775.28;5011324;28;11492;-69
2021/12/21 01:14:52;;;;;;;;;12.00;9.00;;;;;1.66;85.74;102776.06;5010118;28;11444;-69
2021/12/21 01:18:59;;;;;;;;;15.25;10.50;;;;;1.53;85.27;102774.06;5011019;28;11511;-69
2021/12/21 01:21:31;;;;;;;;;10.00;7.50;;;;;1.53;85.33;102771.41;5006058;28;11539;-68
2021/12/21 01:25:00;;;;;;;;;12.00;10.00;;;;;1.52;85.30;102764.34;5011244;28;11441;-69
2021/12/21 01:29:30;;;;;;;;;12.75;7.50;;;;;1.53;85.69;102751.84;5009518;28;11467;-70
2021/12/21 01:34:41;;;;;;;;;9.00;9.00;;;;;1.54;85.60;102743.78;5009406;28;11473;-70
2021/12/21 01:50:22;;;;;;;;;10.50;10.25;;;;;1.37;85.52;102738.47;5004119;28;11575;-68
2021/12/21 01:52:48;;;;;;;;;10.75;7.00;;;;;1.34;85.34;102740.44;5010571;28;11532;-68
2021/12/21 01:55:15;;;;;;;;;10.00;7.50;;;;;1.41;85.60;102739.16;5010584;28;11505;-68
2021/12/21 01:57:42;;;;;;;;;9.75;8.50;;;;;1.38;85.39;102723.31;5010468;28;11500;-68
2021/12/21 02:00:09;;;;;;;;;10.75;9.75;;;;;1.30;85.08;102734.41;5006462;28;11486;-69
2021/12/21 02:02:36;;;;;;;;;13.00;8.00;;;;;1.30;85.25;102738.91;5002901;28;11548;-69
2021/12/21 02:05:04;;;;;;;;;9.50;8.00;;;;;1.34;85.43;102732.44;5010614;28;11516;-69
2021/12/21 02:07:30;;;;;;;;;8.25;8.00;;;;;1.37;85.43;102740.28;5006306;28;11561;-68
2021/12/21 02:09:57;;;;;;;;;8.75;8.25;;;;;1.30;85.31;102738.91;5000188;28;11534;-69
2021/12/21 02:12:23;;;;;;;;;10.00;8.25;;;;;1.26;85.04;102730.19;5010155;28;11517;-68
2021/12/21 02:14:59;;;;;;;;;13.00;11.00;;;;;1.22;85.24;102728.63;5009758;28;11549;-68
2021/12/21 02:18:16;;;;;;;;;11.75;10.25;;;;;1.21;85.55;102729.56;5006238;28;12304;-68
2021/12/21 02:30:58;;;;;;;;;7.75;7.75;;;;;1.07;85.30;102721.44;4963909;28;12321;-69
2021/12/21 02:33:26;;;;;;;;;8.00;8.00;;;;;1.02;85.15;102716.38;5009955;28;11479;-68
2021/12/21 02:35:53;;;;;;;;;9.50;9.50;;;;;0.98;85.31;102721.91;5009089;28;11544;-69
2021/12/21 02:38:20;;;;;;;;;10.75;10.75;;;;;0.99;85.56;102726.31;4995074;28;11483;-69
2021/12/21 02:40:48;;;;;;;;;14.50;14.00;;;;;0.99;85.75;102716.50;4996434;28;11703;-69
2021/12/21 02:43:14;;;;;;;;;12.00;12.00;;;;;0.99;85.56;102723.63;5008954;28;11508;-69
2021/12/21 02:45:41;;;;;;;;;8.00;8.00;;;;;0.97;85.69;102721.06;5009324;28;12233;-69
2021/12/21 02:48:09;;;;;;;;;8.00;8.00;;;;;0.98;85.59;102724.59;5007747;28;12142;-68
2021/12/21 02:50:38;;;;;;;;;10.00;9.25;;;;;0.96;85.46;102723.81;5009503;28;11484;-71
2021/12/21 02:53:07;;;;;;;;;14.50;11.25;;;;;0.89;85.24;102715.28;5009040;28;11497;-68
2021/12/21 02:55:34;;;;;;;;;13.00;11.75;;;;;0.89;85.50;102717.94;5008293;28;11530;-69
2021/12/21 02:58:00;;;;;;;;;15.50;12.25;;;;;0.84;85.46;102720.84;5005018;28;11653;-69
2021/12/21 03:00:28;;;;;;;;;13.50;13.50;;;;;0.79;85.68;102719.38;4990885;28;11610;-69
2021/12/21 03:02:55;;;;;;;;;11.75;9.25;;;;;0.76;85.77;102720.41;5009400;28;11483;-68
2021/12/21 03:05:22;;;;;;;;;16.75;13.00;;;;;0.76;85.67;102725.72;5009675;28;12277;-70
2021/12/21 03:10:22;;;;;;;;;15.25;11.75;;;;;0.70;85.94;102717.16;5009345;28;11513;-69
2021/12/21 03:15:35;;;;;;;;;10.00;9.25;;;;;0.70;86.24;102712.69;5013651;28;11575;-69
2021/12/21 03:18:02;;;;;;;;;11.00;11.00;;;;;0.72;86.06;102712.59;5008296;28;11519;-69
2021/12/21 03:20:29;;;;;;;;;10.75;9.50;;;;;0.66;86.13;102715.59;5013270;28;11643;-69
2021/12/21 03:22:55;;;;;;;;;8.00;8.00;;;;;0.70;86.14;102722.50;5012355;28;11520;-69
2021/12/21 03:25:22;;;;;;;;;15.50;15.00;;;;;0.69;85.89;102718.97;5013471;28;11595;-69
2021/12/21 03:27:48;;;;;;;;;9.00;9.00;;;;;0.69;85.42;102718.97;5011908;28;12266;-70
2021/12/21 03:30:15;;;;;;;;;12.00;10.00;;;;;0.62;85.70;102717.56;5011703;28;11481;-69
2021/12/21 03:32:42;;;;;;;;;10.75;10.25;;;;;0.58;85.60;102719.53;5011532;28;11600;-68
2021/12/21 03:35:09;;;;;;;;;11.00;11.00;;;;;0.63;85.87;102718.44;4995337;28;11523;-70
2021/12/21 03:37:36;;;;;;;;;7.00;7.00;;;;;0.58;85.72;102713.34;5010962;28;11579;-69
2021/12/21 03:40:04;;;;;;;;;16.50;13.75;;;;;0.52;85.85;102714.53;5012994;28;11481;-69
2021/12/21 03:42:30;;;;;;;;;11.75;11.75;;;;;0.53;86.13;102708.25;5012698;28;11537;-69
2021/12/21 03:44:57;;;;;;;;;13.75;11.75;;;;;0.56;86.22;102710.75;4993896;28;11589;-69
2021/12/21 03:47:24;;;;;;;;;11.25;10.75;;;;;0.52;85.89;102709.19;5007223;28;11523;-69
2021/12/21 03:49:54;;;;;;;;;14.50;9.75;;;;;0.53;85.93;102716.25;5012653;28;11651;-68
2021/12/21 03:52:23;;;;;;;;;12.25;10.50;;;;;0.55;86.19;102711.69;5011294;28;11492;-69
2021/12/21 03:54:56;;;;;;;;;9.25;8.00;;;;;0.54;85.93;102706.44;5010158;28;12356;-68
2021/12/21 03:57:23;;;;;;;;;14.00;12.00;;;;;0.47;85.69;102700.53;5011948;28;11489;-69
2021/12/21 03:59:50;;;;;;;;;7.25;6.75;;;;;0.43;85.69;102708.78;5013023;28;11511;-69
2021/12/21 04:02:19;;;;;;;;;16.25;13.50;;;;;0.42;85.86;102705.25;4994328;28;11592;-68
2021/12/21 04:04:46;;;;;;;;;10.25;10.25;;;;;0.42;85.96;102707.06;5009196;28;11516;-69
2021/12/21 04:07:12;;;;;;;;;15.50;11.75;;;;;0.44;85.72;102702.50;5011995;28;11537;-69
2021/12/21 04:09:39;;;;;;;;;14.50;12.50;;;;;0.44;86.03;102699.84;5012634;28;11638;-69
2021/12/21 04:12:06;;;;;;;;;7.50;6.75;;;;;0.39;86.00;102693.88;5010777;28;11531;-69
2021/12/21 04:14:33;;;;;;;;;11.50;9.00;;;;;0.33;86.40;102692.41;5012697;28;11505;-69
2021/12/21 04:17:00;;;;;;;;;9.50;9.50;;;;;0.36;86.55;102686.06;5012171;28;11546;-70
2021/12/21 04:19:27;;;;;;;;;16.50;10.25;;;;;0.41;86.23;102694.66;5009581;28;11512;-69
2021/12/21 04:21:54;;;;;;;;;11.00;8.00;;;;;0.37;86.60;102695.78;5003694;28;11589;-69
2021/12/21 04:24:20;;;;;;;;;9.75;9.75;;;;;0.33;86.09;102692.41;5011514;28;11473;-69
2021/12/21 04:26:47;;;;;;;;;10.00;8.00;;;;;0.31;85.85;102694.28;5010603;28;11491;-68
2021/12/21 04:29:14;;;;;;;;;9.75;9.00;;;;;0.34;86.25;102686.13;5010910;28;11636;-69
2021/12/21 04:31:41;;;;;;;;;11.00;10.50;;;;;0.32;86.38;102685.34;5011723;28;11568;-68
2021/12/21 04:34:07;;;;;;;;;7.50;7.00;;;;;0.31;86.25;102686.28;5011368;28;12652;-68
2021/12/21 04:36:34;;;;;;;;;7.50;7.00;;;;;0.29;86.35;102686.38;5010772;28;11635;-69
2021/12/21 04:39:04;;;;;;;;;10.00;10.00;;;;;0.28;86.09;102683.78;5012017;28;11516;-68
2021/12/21 04:41:31;;;;;;;;;13.25;10.50;;;;;0.28;85.90;102683.78;5010194;28;11602;-68
2021/12/21 04:43:59;;;;;;;;;15.00;14.50;;;;;0.23;85.88;102689.31;5011835;28;11549;-69
2021/12/21 04:46:27;;;;;;;;;14.25;12.00;;;;;0.21;85.97;102693.88;4994005;28;11558;-69
2021/12/21 04:48:54;;;;;;;;;10.00;10.00;;;;;0.21;86.11;102690.34;5011684;28;11591;-69
2021/12/21 04:51:21;;;;;;;;;11.75;9.00;;;;;0.23;86.42;102683.13;4998843;28;11512;-70
2021/12/21 04:53:47;;;;;;;;;10.50;10.00;;;;;0.18;86.15;102686.03;5011480;28;11504;-69
2021/12/21 04:56:14;;;;;;;;;6.25;5.00;;;;;0.18;86.11;102687.84;5000870;28;11528;-69
2021/12/21 04:58:41;;;;;;;;;7.00;7.00;;;;;0.20;86.22;102685.97;5011405;28;11608;-69
2021/12/21 05:01:07;;;;;;;;;6.75;6.75;;;;;0.20;86.22;102683.28;5012588;28;11503;-70
2021/12/21 05:03:34;;;;;;;;;11.00;11.00;;;;;0.23;86.23;102684.00;5014013;28;11493;-68
2021/12/21 05:06:00;;;;;;;;;12.00;12.00;;;;;0.16;86.02;102676.41;5011403;28;11546;-69
2021/12/21 05:08:32;;;;;;;;;10.00;8.00;;;;;0.13;85.93;102668.56;4994291;28;11570;-68
2021/12/21 05:11:03;;;;;;;;;15.75;13.50;;;;;0.15;86.20;102670.22;5010114;28;11519;-68
2021/12/21 05:13:33;;;;;;;;;12.75;10.50;;;;;0.14;85.92;102672.97;5011106;28;12235;-69
2021/12/21 05:16:00;;;;;;;;;11.00;10.25;;;;;0.14;86.09;102683.59;5005003;28;11601;-69
2021/12/21 05:18:27;;;;;;;;;11.75;10.50;;;;;0.13;85.97;102682.75;4992951;28;11525;-68
2021/12/21 05:20:54;;;;;;;;;10.25;10.25;;;;;0.09;85.61;102675.84;5011022;28;11625;-69
2021/12/21 05:23:21;;;;;;;;;15.75;13.00;;;;;0.06;85.74;102673.34;5011344;28;11495;-68
2021/12/21 05:25:47;;;;;;;;;12.25;10.00;;;;;0.04;85.77;102669.91;5008853;28;12301;-68
2021/12/21 05:28:15;;;;;;;;;10.25;10.25;;;;;0.07;85.67;102671.53;5010392;28;11529;-70
2021/12/21 05:30:42;;;;;;;;;11.25;8.75;;;;;0.06;86.12;102676.00;5011015;28;11554;-68
2021/12/21 05:33:09;;;;;;;;;12.00;8.00;;;;;0.03;85.99;102665.50;5011124;28;11511;-68
2021/12/21 05:35:37;;;;;;;;;11.50;11.00;;;;;0.02;85.79;102673.59;5009458;28;11565;-70
2021/12/21 05:38:06;;;;;;;;;7.50;7.50;;;;;0.02;86.30;102670.91;5010902;28;11523;-68
2021/12/21 05:40:37;;;;;;;;;11.25;10.00;;;;;0.02;86.27;102669.13;5009551;28;11531;-69
2021/12/21 05:43:05;;;;;;;;;6.25;6.25;;;;;0.02;86.16;102662.94;5008759;28;12233;-68
2021/12/21 05:45:32;;;;;;;;;10.75;9.50;;;;;0.03;86.06;102667.31;5010567;28;11594;-70
2021/12/21 05:47:59;;;;;;;;;9.00;8.00;;;;;0.03;85.80;102673.50;5010745;28;11600;-68
2021/12/21 05:50:25;;;;;;;;;10.00;7.75;;;;;0.02;85.80;102681.56;4992054;28;11503;-68
2021/12/21 05:52:52;;;;;;;;;8.00;8.00;;;;;-0.04;85.82;102678.25;5008483;28;11517;-68
2021/12/21 05:55:19;;;;;;;;;13.00;11.00;;;;;-0.02;86.21;102680.81;5010500;28;11492;-70
2021/12/21 05:57:46;;;;;;;;;10.25;10.00;;;;;-0.04;86.41;102680.91;5010112;28;11527;-69
2021/12/21 06:00:19;;;;;;;;;12.00;10.00;;;;;-0.05;86.25;102684.50;4979275;28;11680;-68
2021/12/21 06:02:46;;;;;;;;;9.00;7.00;;;;;-0.03;86.28;102676.44;5009051;28;11507;-69
2021/12/21 06:05:12;;;;;;;;;11.75;10.00;;;;;0.01;86.43;102683.38;5010317;28;11581;-68
2021/12/21 06:07:39;;;;;;;;;11.75;11.75;;;;;-0.03;86.30;102684.44;5009391;28;11519;-69
2021/12/21 06:10:14;;;;;;;;;10.25;9.50;;;;;-0.07;86.18;102677.53;5006193;28;12235;-68
2021/12/21 06:15:41;;;;;;;;;10.50;9.00;;;;;-0.12;86.49;102685.75;5010215;28;11550;-68
2021/12/21 06:24:40;;;;;;;;;13.00;13.00;;;;;-0.19;86.23;102688.78;5004930;28;11499;-70
2021/12/21 06:26:37;;;;;;;;;12.00;9.50;;;;;-0.15;86.47;102682.38;5009659;28;11508;-69
2021/12/21 06:29:04;;;;;;;;;11.00;9.50;;;;;-0.14;86.04;102679.66;5009956;28;11593;-70
2021/12/21 06:31:32;;;;;;;;;6.75;5.00;;;;;-0.16;86.32;102678.84;5000603;28;11508;-69
2021/12/21 06:33:58;;;;;;;;;11.00;11.00;;;;;-0.16;86.26;102673.53;5009575;28;11557;-69
2021/12/21 06:36:25;;;;;;;;;8.50;8.50;;;;;-0.16;86.20;102678.00;5006272;28;12186;-68
2021/12/21 06:38:53;;;;;;;;;11.25;8.00;;;;;-0.17;86.20;102686.91;4992121;28;11514;-69
2021/12/21 06:41:20;;;;;;;;;10.00;10.00;;;;;-0.22;86.09;102686.28;5003328;28;12253;-71
2021/12/21 06:43:48;;;;;;;;;13.75;10.75;;;;;-0.22;86.53;102687.16;5010186;28;11538;-68
2021/12/21 06:51:41;;;;;;;;;16.75;12.00;;;;;-0.18;86.52;102680.72;5011990;28;11535;-67
2021/12/21 06:54:08;;;;;;;;;9.75;9.00;;;;;-0.20;86.28;102671.09;5016436;28;11572;-68
2021/12/21 06:56:34;;;;;;;;;12.50;9.00;;;;;-0.22;86.33;102673.84;5016208;28;11661;-69
2021/12/21 06:59:01;;;;;;;;;10.50;10.00;;;;;-0.24;86.25;102683.69;5016241;28;11534;-69
2021/12/21 07:01:28;;;;;;;;;9.00;9.00;;;;;-0.22;86.10;102676.50;5006883;28;11540;-70
2021/12/21 07:03:57;;;;;;;;;9.50;7.00;;;;;-0.21;86.16;102675.56;5015042;28;11571;-70
2021/12/21 07:06:24;;;;;;;;;10.00;10.00;;;;;-0.21;86.22;102674.69;5016183;28;11531;-70
2021/12/21 07:09:10;;;;;;;;;20.50;11.00;;;;;-0.26;86.24;102676.69;4994617;28;11522;-71
2021/12/21 07:11:43;;;;;;;;;10.00;4.00;;;;;-0.26;86.29;102664.25;5006627;28;11525;-70
2021/12/21 07:19:44;;;;;;;;;10.75;10.50;;;;;-0.26;86.36;102677.56;5016153;28;12392;-70
2021/12/21 07:22:11;;;;;;;;;11.00;11.00;;;;;-0.29;86.31;102677.72;5012146;28;11586;-69
2021/12/21 07:24:37;;;;;;;;;14.50;12.50;;;;;-0.26;86.21;102680.22;5015428;28;11555;-70
2021/12/21 07:27:04;;;;;;;;;15.00;13.50;;;;;-0.27;86.23;102682.97;5012507;28;11540;-70
2021/12/21 07:29:31;;;;;;;;;9.50;9.50;;;;;-0.14;87.37;102687.63;5013278;28;11659;-69
2021/12/21 07:31:58;;;;;;;;;12.00;11.50;;;;;-0.22;86.83;102686.28;5015087;28;12300;-70
2021/12/21 07:34:24;;;;;;;;;17.00;13.50;;;;;-0.29;86.68;102688.34;5014149;28;11514;-72
2021/12/21 07:36:51;;;;;;;;;9.00;9.00;;;;;1.17;96.76;102688.00;4997624;28;11629;-71
2021/12/21 07:39:18;;;;;;;;;9.00;9.00;;;;;0.39;88.91;102688.56;5015898;28;11500;-72
2021/12/21 07:42:04;;;;;;;;;11.00;10.25;;;;;0.03;86.42;102684.16;5000624;28;11540;-72
2021/12/21 07:44:30;;;;;;;;;11.50;11.00;;;;;-0.07;86.35;102694.38;5013030;28;11576;-70
2021/12/21 07:46:57;;;;;;;;;12.00;12.00;;;;;-0.12;86.16;102696.41;5012741;28;12381;-70
2021/12/21 07:49:24;;;;;;;;;12.00;9.00;;;;;-0.15;86.49;102695.69;5012360;28;11500;-74
2021/12/21 07:51:51;;;;;;;;;10.00;10.00;;;;;-0.20;86.45;102700.38;5013066;28;11500;-70
2021/12/21 07:54:18;;;;;;;;;14.00;11.75;;;;;-0.23;86.44;102695.22;5012880;28;11563;-71
2021/12/21 07:56:45;;;;;;;;;16.50;14.00;;;;;-0.21;86.50;102706.63;5012288;28;11534;-71
2021/12/21 07:59:12;;;;;;;;;9.25;7.25;;;;;-0.20;86.44;102705.69;5008113;28;11549;-71
2021/12/21 08:01:39;;;;;;;;;15.25;13.50;;;;;-0.22;86.18;102710.25;5009102;28;11545;-71
2021/12/21 08:04:07;;;;;;;;;13.00;11.75;;;;;-0.24;86.01;102715.63;5009913;28;11516;-71
2021/12/21 08:06:36;;;;;;;;;10.50;10.50;;;;;-0.21;86.42;102709.31;5007360;28;11517;-71
2021/12/21 08:09:05;;;;;;;;;17.25;14.75;;;;;-0.18;86.42;102715.34;5008590;28;11512;-71
2021/12/21 08:14:03;;;;;;;;;14.50;12.50;;;;;-0.15;86.26;102715.19;5007438;28;11528;-70
2021/12/21 08:16:31;;;;;;;;;15.50;13.50;;;;;-0.16;86.61;102718.78;5009222;28;11534;-71
2021/12/21 08:18:58;;;;;;;;;13.00;12.00;;;;;-0.19;86.58;102721.59;5009409;28;11566;-71
2021/12/21 08:21:25;;;;;;;;;14.25;11.25;;;;;-0.23;86.74;102719.16;5009333;28;11528;-70
2021/12/21 08:23:52;;;;;;;;;13.25;12.00;;;;;-0.22;87.00;102720.88;5007702;28;11634;-70
2021/12/21 08:26:19;;;;;;;;;13.00;11.00;;;;;-0.20;86.84;102729.66;5008551;28;11598;-72
2021/12/21 08:28:45;;;;;;;;;14.50;12.50;;;;;-0.17;87.02;102727.72;5004544;28;11531;-71
2021/12/21 08:31:12;;;;;;;;;15.00;12.50;;;;;-0.17;87.02;102721.53;5008414;28;11614;-70
2021/12/21 08:33:41;;;;;;;;;16.75;14.25;;;;;-0.15;87.23;102719.66;5006195;28;11610;-70
2021/12/21 08:36:10;;;;;;;;;12.75;10.75;;;;;-0.10;87.25;102714.97;4988320;28;11554;-70
2021/12/21 08:38:40;;;;;;;;;11.50;11.50;;;;;-0.06;87.00;102711.19;4996310;28;11762;-70
2021/12/21 08:41:07;;;;;;;;;9.00;8.00;;;;;-0.05;87.24;102707.59;4992792;28;11622;-70
2021/12/21 08:43:35;;;;;;;;;16.00;15.25;;;;;-0.05;87.16;102708.47;5010937;28;11555;-71
2021/12/21 08:46:02;;;;;;;;;14.00;13.25;;;;;0.05;87.62;102711.56;5007947;28;11608;-70
2021/12/21 08:48:31;;;;;;;;;19.50;16.25;;;;;0.07;87.30;102714.16;5009528;28;12353;-70
2021/12/21 08:50:58;;;;;;;;;21.00;15.25;;;;;0.11;87.20;102715.72;5010415;28;12258;-70
2021/12/21 08:53:25;;;;;;;;;17.75;14.00;;;;;0.19;87.25;102710.88;5010256;28;11637;-70
2021/12/21 08:55:53;;;;;;;;;12.75;12.75;;;;;0.25;87.29;102721.25;5010007;28;11531;-71
2021/12/21 08:58:21;;;;;;;;;18.25;14.00;;;;;0.30;87.10;102730.72;5008775;28;12353;-71
2021/12/21 09:00:49;;;;;;;;;14.00;12.25;;;;;0.34;87.10;102735.88;5007626;28;11560;-70
2021/12/21 09:03:17;;;;;;;;;15.50;14.50;;;;;0.34;87.38;102731.41;5009515;28;11585;-71
2021/12/21 09:05:43;;;;;;;;;14.00;11.75;;;;;0.33;87.43;102728.84;5009729;28;11709;-70
2021/12/21 09:08:10;;;;;;;;;11.25;9.75;;;;;0.35;87.90;102727.81;5008289;28;11563;-71
2021/12/21 09:10:38;;;;;;;;;13.00;10.75;;;;;0.46;88.37;102721.94;4996868;28;11639;-70
2021/12/21 09:13:06;;;;;;;;;11.50;11.25;;;;;0.57;88.12;102725.81;5009182;28;11514;-73
2021/12/21 09:15:33;;;;;;;;;13.00;13.00;;;;;0.71;87.99;102724.22;5009641;28;11623;-70
2021/12/21 09:17:59;;;;;;;;;10.75;8.50;;;;;0.87;87.62;102715.34;5009367;28;11630;-70
2021/12/21 09:20:28;;;;;;;;;9.75;9.75;;;;;1.05;87.61;102707.34;5009536;28;11483;-69
2021/12/21 09:22:56;;;;;;;;;14.00;11.75;;;;;1.13;87.14;102711.31;5004633;28;11536;-70
2021/12/21 09:25:23;;;;;;;;;14.75;11.75;;;;;1.25;86.06;102716.94;5009487;28;11596;-71
2021/12/21 09:27:51;;;;;;;;;13.00;9.50;;;;;1.41;85.28;102707.16;5009120;28;11646;-70
2021/12/21 09:30:19;;;;;;;;;7.50;7.25;;;;;1.51;84.09;102714.59;4991907;28;11515;-70
2021/12/21 09:32:46;;;;;;;;;7.75;7.00;;;;;1.57;82.56;102718.72;5009146;28;11628;-69
2021/12/21 09:35:14;;;;;;;;;9.50;9.50;;;;;1.58;81.86;102714.22;5009476;28;11487;-72
2021/12/21 09:37:44;;;;;;;;;8.50;8.50;;;;;1.66;81.60;102720.00;4992922;28;11576;-71
2021/12/21 09:40:18;;;;;;;;;10.00;8.50;;;;;1.72;82.54;102730.34;5008696;28;11581;-70
2021/12/21 09:42:45;;;;;;;;;9.75;6.75;;;;;1.80;82.61;102720.97;5009551;28;11604;-71
2021/12/21 09:45:13;;;;;;;;;13.50;8.00;;;;;1.81;82.98;102722.69;5009174;28;11545;-69
2021/12/21 09:47:39;;;;;;;;;7.25;6.50;;;;;1.85;83.26;102724.22;5008267;28;12212;-72
2021/12/21 09:50:09;;;;;;;;;7.75;7.75;;;;;1.92;82.19;102723.88;5008590;28;11458;-69
2021/12/21 09:52:35;;;;;;;;;12.75;10.75;;;;;2.03;81.45;102725.00;5008803;28;11639;-69
2021/12/21 09:55:06;;;;;;;;;11.25;9.00;;;;;2.13;81.28;102728.00;4989806;28;11514;-70
2021/12/21 09:57:32;;;;;;;;;12.00;9.00;;;;;2.20;79.02;102733.84;5006902;28;11503;-70
2021/12/21 09:59:59;;;;;;;;;9.25;9.25;;;;;2.35;78.21;102733.84;5008636;28;11609;-70
2021/12/21 10:02:26;;;;;;;;;10.00;9.50;;;;;2.44;78.21;102724.41;5005910;28;11540;-70
2021/12/21 10:05:02;;;;;;;;;10.50;10.50;;;;;2.47;76.71;102724.22;5002103;28;11606;-70
2021/12/21 10:07:29;;;;;;;;;13.75;11.00;;;;;2.56;76.04;102720.16;5004990;28;11540;-69
2021/12/21 10:10:12;;;;;;;;;11.25;10.50;;;;;2.63;75.67;102711.69;5002921;28;11592;-69
2021/12/21 10:12:42;;;;;;;;;9.00;4.00;;;;;2.70;75.98;102705.00;5003564;28;11527;-70
2021/12/21 10:15:16;;;;;;;;;15.25;11.75;;;;;2.78;76.03;102694.72;5000642;28;11430;-70
2021/12/21 10:17:54;;;;;;;;;11.00;11.00;;;;;2.68;74.84;102692.69;5000508;28;11455;-69
2021/12/21 10:20:35;;;;;;;;;11.50;9.75;;;;;2.69;75.34;102695.25;5005312;28;11522;-69
2021/12/21 10:23:17;;;;;;;;;11.25;11.25;;;;;2.73;75.87;102695.97;5003396;28;11474;-69
2021/12/21 10:25:53;;;;;;;;;12.75;11.50;;;;;2.65;75.21;102700.91;5007578;28;11559;-69
2021/12/21 10:28:33;;;;;;;;;20.25;12.25;;;;;2.69;74.94;102694.41;5008310;28;13271;-69
2021/12/21 10:31:04;;;;;;;;;12.75;11.75;;;;;2.74;75.42;102690.53;5016766;28;11518;-69
2021/12/21 10:33:31;;;;;;;;;12.00;10.00;;;;;2.70;74.76;102683.59;5026875;28;11470;-69
2021/12/21 10:35:59;;;;;;;;;12.50;12.00;;;;;2.53;74.96;102689.13;5024979;28;11469;-71
2021/12/21 10:38:32;;;;;;;;;10.75;8.25;;;;;2.50;75.58;102683.97;5021552;28;12247;-71
2021/12/21 10:41:06;;;;;;;;;15.00;12.00;;;;;2.56;75.82;102680.06;5015215;28;11459;-72
2021/12/21 10:43:32;;;;;;;;;15.50;13.25;;;;;2.55;75.49;102681.88;5012265;28;11605;-70
2021/12/21 10:45:59;;;;;;;;;19.50;12.75;;;;;2.56;75.33;102680.06;5005255;28;11464;-70
2021/12/21 10:48:26;;;;;;;;;15.25;14.50;;;;;2.53;75.32;102675.75;5010388;28;12370;-68
2021/12/21 10:50:52;;;;;;;;;14.00;12.00;;;;;2.51;76.09;102676.81;5009084;28;11539;-68
2021/12/21 10:53:23;;;;;;;;;14.75;13.50;;;;;2.64;76.27;102673.28;5008589;28;11475;-69
2021/12/21 10:56:07;;;;;;;;;5.75;5.00;;;;;2.80;77.00;102675.91;5003913;28;11611;-69
2021/12/21 10:58:40;;;;;;;;;11.00;11.00;;;;;2.81;76.17;102676.78;5007180;28;12178;-69
2021/12/21 11:01:11;;;;;;;;;12.00;11.75;;;;;2.71;75.00;102669.28;5008008;28;11613;-68
2021/12/21 11:03:46;;;;;;;;;11.50;11.50;;;;;2.80;75.03;102673.25;5007791;28;11466;-70
2021/12/21 11:06:19;;;;;;;;;12.25;12.00;;;;;2.85;75.22;102667.59;5006739;28;11493;-69
2021/12/21 11:08:49;;;;;;;;;12.50;11.25;;;;;2.83;74.82;102669.50;5005615;28;11460;-69
2021/12/21 11:11:42;;;;;;;;;11.25;10.00;;;;;2.89;74.34;102666.44;5006799;28;11479;-69
2021/12/21 11:14:15;;;;;;;;;11.50;11.00;;;;;2.89;74.28;102663.78;5007129;28;11479;-68
2021/12/21 11:16:46;;;;;;;;;11.75;11.75;;;;;2.99;74.54;102660.47;5004234;28;11562;-71
2021/12/21 11:19:20;;;;;;;;;14.00;10.00;;;;;3.59;78.63;102648.63;5007067;28;11445;-69
2021/12/21 11:21:47;;;;;;;;;8.00;8.00;;;;;3.31;73.84;102657.56;5006673;28;11536;-71
2021/12/21 11:24:16;;;;;;;;;9.00;9.00;;;;;3.25;73.27;102664.19;5009021;28;12200;-71
2021/12/21 11:26:44;;;;;;;;;11.00;6.00;;;;;3.36;72.80;102672.38;5007561;28;11434;-69
2021/12/21 11:29:14;;;;;;;;;8.50;7.50;;;;;3.45;72.24;102660.22;4998727;28;11502;-72
2021/12/21 11:31:46;;;;;;;;;7.50;7.50;;;;;3.46;71.09;102651.22;5006582;28;11507;-71
2021/12/21 11:34:16;;;;;;;;;9.25;9.25;;;;;3.54;70.88;102651.59;4990993;28;11530;-70
2021/12/21 11:39:34;;;;;;;;;6.00;6.00;;;;;3.71;69.60;102655.84;5009998;28;11523;-72
2021/12/21 11:42:04;;;;;;;;;6.75;6.00;;;;;3.81;69.04;102646.28;5010240;28;12286;-74
2021/12/21 11:44:54;;;;;;;;;7.50;7.50;;;;;3.82;69.26;102641.78;4987611;28;11547;-71
2021/12/21 11:47:30;;;;;;;;;9.50;8.75;;;;;3.82;68.95;102641.78;5002215;28;11425;-72
2021/12/21 11:50:04;;;;;;;;;8.50;6.25;;;;;3.83;68.37;102633.63;5002835;28;11439;-73
2021/12/21 11:52:46;;;;;;;;;6.00;6.00;;;;;3.87;68.17;102632.47;5001289;28;11441;-73
2021/12/21 11:55:14;;;;;;;;;9.00;7.75;;;;;3.86;68.55;102622.72;5006747;28;12176;-72
2021/12/21 11:57:46;;;;;;;;;7.00;6.75;;;;;3.89;68.43;102621.66;5009638;28;11465;-71
2021/12/21 12:00:23;;;;;;;;;13.75;9.00;;;;;3.84;69.08;102616.59;4992478;28;12274;-72
2021/12/21 12:02:51;;;;;;;;;9.75;8.75;;;;;3.77;69.57;102617.97;5009888;28;11482;-72
2021/12/21 12:05:25;;;;;;;;;5.00;5.00;;;;;3.75;69.06;102611.84;5006667;28;11457;-72
2021/12/21 12:08:19;;;;;;;;;7.50;6.50;;;;;3.75;68.02;102611.84;4988891;28;11461;-72
2021/12/21 12:10:54;;;;;;;;;7.25;6.50;;;;;3.76;68.58;102612.72;4985716;28;11449;-72
2021/12/21 12:13:29;;;;;;;;;14.75;13.75;;;;;3.55;68.30;102605.13;4991857;28;11476;-72
2021/12/21 12:16:04;;;;;;;;;10.50;10.50;;;;;3.49;69.73;102607.34;5010022;28;11504;-74
2021/12/21 12:18:44;;;;;;;;;12.00;10.00;;;;;3.55;69.98;102598.91;4992615;28;11479;-72
2021/12/21 12:21:17;;;;;;;;;12.50;12.50;;;;;3.48;69.64;102597.59;4989510;28;11528;-73
2021/12/21 12:23:51;;;;;;;;;14.25;7.50;;;;;3.51;69.37;102598.25;5008720;28;11481;-72
2021/12/21 12:26:30;;;;;;;;;10.25;7.00;;;;;3.59;69.32;102595.94;5006075;28;11466;-71
2021/12/21 12:29:10;;;;;;;;;4.00;4.00;;;;;3.49;67.80;102602.84;4993123;28;11473;-71
2021/12/21 12:31:39;;;;;;;;;9.00;8.00;;;;;3.55;67.81;102593.56;5009020;28;11440;-71
2021/12/21 12:34:06;;;;;;;;;11.50;11.00;;;;;3.46;67.84;102599.50;5009675;28;11644;-72
2021/12/21 12:36:39;;;;;;;;;7.00;7.00;;;;;3.49;68.21;102592.16;5009820;28;12216;-72
2021/12/21 12:39:07;;;;;;;;;7.00;7.00;;;;;3.62;67.99;102587.69;4989432;28;11427;-72
2021/12/21 12:41:52;;;;;;;;;17.67;11.00;;;;;3.79;68.56;102581.22;5003987;28;11418;-70